sensor_id;sensor_type;location;lat;lon;timestamp;temperature;humidity
46364;DHT22;32071;49.036;9.344;2024-03-02T00:02:18;4.60;99.90
46364;DHT22;32071;49.036;9.344;2024-03-02T00:04:45;4.60;99.90
46364;DHT22;32071;49.036;9.344;2024-03-02T00:07:14;4.70;99.90
46364;DHT22;32071;49.036;9.344;2024-03-02T00:09:40;4.80;99.90
46364;DHT22;32071;49.036;9.344;2024-03-02T00:12:05;4.80;99.90
46364;DHT22;32071;49.036;9.344;2024-03-02T00:14:31;4.80;99.90
46364;DHT22;32071;49.036;9.344;2024-03-02T00:16:57;4.80;99.90
46364;DHT22;32071;49.036;9.344;2024-03-02T00:19:23;4.80;99.90
46364;DHT22;32071;49.036;9.344;2024-03-02T00:21:48;4.70;99.90
46364;DHT22;32071;49.036;9.344;2024-03-02T00:24:21;4.70;99.90
46364;DHT22;32071;49.036;9.344;2024-03-02T00:26:51;4.70;99.90
46364;DHT22;32071;49.036;9.344;2024-03-02T00:29:17;4.70;99.90
46364;DHT22;32071;49.036;9.344;2024-03-02T00:31:43;4.60;99.90
46364;DHT22;32071;49.036;9.344;2024-03-02T00:34:09;4.60;99.90
46364;DHT22;32071;49.036;9.344;2024-03-02T00:36:38;4.50;99.90
46364;DHT22;32071;49.036;9.344;2024-03-02T00:39:03;4.50;99.90
46364;DHT22;32071;49.036;9.344;2024-03-02T00:41:33;4.50;99.90
46364;DHT22;32071;49.036;9.344;2024-03-02T00:44:03;4.50;99.90
46364;DHT22;32071;49.036;9.344;2024-03-02T00:46:38;4.50;99.90
46364;DHT22;32071;49.036;9.344;2024-03-02T00:49:06;4.50;99.90
46364;DHT22;32071;49.036;9.344;2024-03-02T00:51:37;4.50;99.90
46364;DHT22;32071;49.036;9.344;2024-03-02T00:54:05;4.40;99.90
46364;DHT22;32071;49.036;9.344;2024-03-02T00:56:32;4.40;99.90
46364;DHT22;32071;49.036;9.344;2024-03-02T00:58:57;4.40;99.90
46364;DHT22;32071;49.036;9.344;2024-03-02T01:01:23;4.40;99.90
46364;DHT22;32071;49.036;9.344;2024-03-02T01:03:49;4.30;99.90
46364;DHT22;32071;49.036;9.344;2024-03-02T01:06:15;4.30;99.90
46364;DHT22;32071;49.036;9.344;2024-03-02T01:08:42;4.30;99.90
46364;DHT22;32071;49.036;9.344;2024-03-02T01:11:07;4.30;99.90
46364;DHT22;32071;49.036;9.344;2024-03-02T01:13:33;4.40;99.90
46364;DHT22;32071;49.036;9.344;2024-03-02T01:15:59;4.40;99.90
46364;DHT22;32071;49.036;9.344;2024-03-02T01:18:25;4.40;99.90
46364;DHT22;32071;49.036;9.344;2024-03-02T01:20:50;4.40;99.90
46364;DHT22;32071;49.036;9.344;2024-03-02T01:23:21;4.50;99.90
46364;DHT22;32071;49.036;9.344;2024-03-02T01:25:47;4.50;99.90
46364;DHT22;32071;49.036;9.344;2024-03-02T01:28:14;4.50;99.90
46364;DHT22;32071;49.036;9.344;2024-03-02T01:30:39;4.50;99.90
46364;DHT22;32071;49.036;9.344;2024-03-02T01:33:05;4.60;99.90
46364;DHT22;32071;49.036;9.344;2024-03-02T01:35:32;4.60;99.90
46364;DHT22;32071;49.036;9.344;2024-03-02T01:37:57;4.60;99.90
46364;DHT22;32071;49.036;9.344;2024-03-02T01:40:23;4.60;99.90
46364;DHT22;32071;49.036;9.344;2024-03-02T01:42:53;4.50;99.90
46364;DHT22;32071;49.036;9.344;2024-03-02T01:45:20;4.50;99.90
46364;DHT22;32071;49.036;9.344;2024-03-02T01:47:45;4.50;99.90
46364;DHT22;32071;49.036;9.344;2024-03-02T01:50:11;4.50;99.90
46364;DHT22;32071;49.036;9.344;2024-03-02T01:52:37;4.40;99.90
46364;DHT22;32071;49.036;9.344;2024-03-02T01:55:03;4.50;99.90
46364;DHT22;32071;49.036;9.344;2024-03-02T01:57:29;4.40;99.90
46364;DHT22;32071;49.036;9.344;2024-03-02T01:59:55;4.40;99.90
46364;DHT22;32071;49.036;9.344;2024-03-02T02:02:21;4.40;99.90
46364;DHT22;32071;49.036;9.344;2024-03-02T02:04:47;4.40;99.90
46364;DHT22;32071;49.036;9.344;2024-03-02T02:07:13;4.40;99.90
46364;DHT22;32071;49.036;9.344;2024-03-02T02:09:41;4.40;99.90
46364;DHT22;32071;49.036;9.344;2024-03-02T02:12:06;4.40;99.90
46364;DHT22;32071;49.036;9.344;2024-03-02T02:14:33;4.30;99.90
46364;DHT22;32071;49.036;9.344;2024-03-02T02:16:59;4.30;99.90
46364;DHT22;32071;49.036;9.344;2024-03-02T02:19:24;4.30;99.90
46364;DHT22;32071;49.036;9.344;2024-03-02T02:21:50;4.30;99.90
46364;DHT22;32071;49.036;9.344;2024-03-02T02:24:15;4.30;99.90
46364;DHT22;32071;49.036;9.344;2024-03-02T02:26:41;4.30;99.90
46364;DHT22;32071;49.036;9.344;2024-03-02T02:29:06;4.30;99.90
46364;DHT22;32071;49.036;9.344;2024-03-02T02:31:39;4.20;99.90
46364;DHT22;32071;49.036;9.344;2024-03-02T02:34:05;4.10;99.90
46364;DHT22;32071;49.036;9.344;2024-03-02T02:36:35;4.10;99.90
46364;DHT22;32071;49.036;9.344;2024-03-02T02:39:03;4.00;99.90
46364;DHT22;32071;49.036;9.344;2024-03-02T02:41:29;4.00;99.90
46364;DHT22;32071;49.036;9.344;2024-03-02T02:43:55;3.90;99.90
46364;DHT22;32071;49.036;9.344;2024-03-02T02:46:21;4.00;99.90
46364;DHT22;32071;49.036;9.344;2024-03-02T02:48:46;3.90;99.90
46364;DHT22;32071;49.036;9.344;2024-03-02T02:51:12;3.90;99.90
46364;DHT22;32071;49.036;9.344;2024-03-02T02:53:37;3.90;99.90
46364;DHT22;32071;49.036;9.344;2024-03-02T02:56:06;3.90;99.90
46364;DHT22;32071;49.036;9.344;2024-03-02T02:58:31;3.90;99.90
46364;DHT22;32071;49.036;9.344;2024-03-02T03:00:57;3.80;99.90
46364;DHT22;32071;49.036;9.344;2024-03-02T03:03:23;3.80;99.90
46364;DHT22;32071;49.036;9.344;2024-03-02T03:05:48;3.80;99.90
46364;DHT22;32071;49.036;9.344;2024-03-02T03:08:14;3.90;99.90
46364;DHT22;32071;49.036;9.344;2024-03-02T03:10:41;3.80;99.90
46364;DHT22;32071;49.036;9.344;2024-03-02T03:13:07;3.80;99.90
46364;DHT22;32071;49.036;9.344;2024-03-02T03:15:34;3.80;99.90
46364;DHT22;32071;49.036;9.344;2024-03-02T03:18:02;3.80;99.90
46364;DHT22;32071;49.036;9.344;2024-03-02T03:20:29;3.80;99.90
46364;DHT22;32071;49.036;9.344;2024-03-02T03:22:55;3.70;99.90
46364;DHT22;32071;49.036;9.344;2024-03-02T03:25:21;3.70;99.90
46364;DHT22;32071;49.036;9.344;2024-03-02T03:27:47;3.70;99.90
46364;DHT22;32071;49.036;9.344;2024-03-02T03:30:13;3.70;99.90
46364;DHT22;32071;49.036;9.344;2024-03-02T03:32:38;3.70;99.90
46364;DHT22;32071;49.036;9.344;2024-03-02T03:35:04;3.70;99.90
46364;DHT22;32071;49.036;9.344;2024-03-02T03:37:30;3.70;99.90
46364;DHT22;32071;49.036;9.344;2024-03-02T03:39:59;3.70;99.90
46364;DHT22;32071;49.036;9.344;2024-03-02T03:42:24;3.60;99.90
46364;DHT22;32071;49.036;9.344;2024-03-02T03:44:50;3.60;99.90
46364;DHT22;32071;49.036;9.344;2024-03-02T03:47:15;3.50;99.90
46364;DHT22;32071;49.036;9.344;2024-03-02T03:49:41;3.50;99.90
46364;DHT22;32071;49.036;9.344;2024-03-02T03:52:07;3.50;99.90
46364;DHT22;32071;49.036;9.344;2024-03-02T03:54:32;3.50;99.90
46364;DHT22;32071;49.036;9.344;2024-03-02T03:56:58;3.50;99.90
46364;DHT22;32071;49.036;9.344;2024-03-02T03:59:23;3.50;99.90
46364;DHT22;32071;49.036;9.344;2024-03-02T04:01:49;3.50;99.90
46364;DHT22;32071;49.036;9.344;2024-03-02T04:04:15;3.40;99.90
46364;DHT22;32071;49.036;9.344;2024-03-02T04:06:40;3.40;99.90
46364;DHT22;32071;49.036;9.344;2024-03-02T04:09:06;3.40;99.90
46364;DHT22;32071;49.036;9.344;2024-03-02T04:11:31;3.40;99.90
46364;DHT22;32071;49.036;9.344;2024-03-02T04:13:57;3.40;99.90
46364;DHT22;32071;49.036;9.344;2024-03-02T04:16:22;3.30;99.90
46364;DHT22;32071;49.036;9.344;2024-03-02T04:18:48;3.30;99.90
46364;DHT22;32071;49.036;9.344;2024-03-02T04:21:14;3.20;99.90
46364;DHT22;32071;49.036;9.344;2024-03-02T04:23:39;3.20;99.90
46364;DHT22;32071;49.036;9.344;2024-03-02T04:26:05;3.10;99.90
46364;DHT22;32071;49.036;9.344;2024-03-02T04:28:30;3.10;99.90
46364;DHT22;32071;49.036;9.344;2024-03-02T04:30:56;3.10;99.90
46364;DHT22;32071;49.036;9.344;2024-03-02T04:33:21;3.10;99.90
46364;DHT22;32071;49.036;9.344;2024-03-02T04:35:47;3.10;99.90
46364;DHT22;32071;49.036;9.344;2024-03-02T04:38:13;3.20;99.90
46364;DHT22;32071;49.036;9.344;2024-03-02T04:40:38;3.20;99.90
46364;DHT22;32071;49.036;9.344;2024-03-02T04:43:04;3.20;99.90
46364;DHT22;32071;49.036;9.344;2024-03-02T04:45:29;3.30;99.90
46364;DHT22;32071;49.036;9.344;2024-03-02T04:47:55;3.40;99.90
46364;DHT22;32071;49.036;9.344;2024-03-02T04:50:20;3.50;99.90
46364;DHT22;32071;49.036;9.344;2024-03-02T04:52:46;3.50;99.90
46364;DHT22;32071;49.036;9.344;2024-03-02T04:55:11;3.50;99.90
46364;DHT22;32071;49.036;9.344;2024-03-02T04:57:52;3.50;99.90
46364;DHT22;32071;49.036;9.344;2024-03-02T05:00:20;3.50;99.90
46364;DHT22;32071;49.036;9.344;2024-03-02T05:02:46;3.50;99.90
46364;DHT22;32071;49.036;9.344;2024-03-02T05:05:11;3.50;99.90
46364;DHT22;32071;49.036;9.344;2024-03-02T05:07:37;3.50;99.90
46364;DHT22;32071;49.036;9.344;2024-03-02T05:10:03;3.50;99.90
46364;DHT22;32071;49.036;9.344;2024-03-02T05:12:28;3.50;99.90
46364;DHT22;32071;49.036;9.344;2024-03-02T05:15:09;3.50;99.90
46364;DHT22;32071;49.036;9.344;2024-03-02T05:17:36;3.50;99.90
46364;DHT22;32071;49.036;9.344;2024-03-02T05:20:06;3.50;99.90
46364;DHT22;32071;49.036;9.344;2024-03-02T05:22:33;3.60;99.90
46364;DHT22;32071;49.036;9.344;2024-03-02T05:24:59;3.60;99.90
46364;DHT22;32071;49.036;9.344;2024-03-02T05:27:29;3.50;99.90
46364;DHT22;32071;49.036;9.344;2024-03-02T05:29:54;3.50;99.90
46364;DHT22;32071;49.036;9.344;2024-03-02T05:32:20;3.40;99.90
46364;DHT22;32071;49.036;9.344;2024-03-02T05:34:45;3.30;99.90
46364;DHT22;32071;49.036;9.344;2024-03-02T05:37:11;3.30;99.90
46364;DHT22;32071;49.036;9.344;2024-03-02T05:39:37;3.30;99.90
46364;DHT22;32071;49.036;9.344;2024-03-02T05:42:02;3.20;99.90
46364;DHT22;32071;49.036;9.344;2024-03-02T05:44:28;3.20;99.90
46364;DHT22;32071;49.036;9.344;2024-03-02T05:46:54;3.30;99.90
46364;DHT22;32071;49.036;9.344;2024-03-02T05:49:19;3.30;99.90
46364;DHT22;32071;49.036;9.344;2024-03-02T05:51:45;3.30;99.90
46364;DHT22;32071;49.036;9.344;2024-03-02T05:54:11;3.40;99.90
46364;DHT22;32071;49.036;9.344;2024-03-02T05:56:36;3.30;99.90
46364;DHT22;32071;49.036;9.344;2024-03-02T05:59:02;3.20;99.90
46364;DHT22;32071;49.036;9.344;2024-03-02T06:01:38;3.10;99.90
46364;DHT22;32071;49.036;9.344;2024-03-02T06:04:04;3.10;99.90
46364;DHT22;32071;49.036;9.344;2024-03-02T06:06:30;3.10;99.90
46364;DHT22;32071;49.036;9.344;2024-03-02T06:08:55;3.00;99.90
46364;DHT22;32071;49.036;9.344;2024-03-02T06:11:21;3.00;99.90
46364;DHT22;32071;49.036;9.344;2024-03-02T06:13:47;3.00;99.90
46364;DHT22;32071;49.036;9.344;2024-03-02T06:16:13;2.90;99.90
46364;DHT22;32071;49.036;9.344;2024-03-02T06:18:39;3.00;99.90
46364;DHT22;32071;49.036;9.344;2024-03-02T06:21:04;3.00;99.90
46364;DHT22;32071;49.036;9.344;2024-03-02T06:23:30;3.00;99.90
46364;DHT22;32071;49.036;9.344;2024-03-02T06:25:55;3.00;99.90
46364;DHT22;32071;49.036;9.344;2024-03-02T06:28:21;3.10;99.90
46364;DHT22;32071;49.036;9.344;2024-03-02T06:30:46;3.10;99.90
46364;DHT22;32071;49.036;9.344;2024-03-02T06:33:12;3.30;99.90
46364;DHT22;32071;49.036;9.344;2024-03-02T06:35:38;3.40;99.90
46364;DHT22;32071;49.036;9.344;2024-03-02T06:38:04;3.40;99.90
46364;DHT22;32071;49.036;9.344;2024-03-02T06:40:30;3.40;99.90
46364;DHT22;32071;49.036;9.344;2024-03-02T06:42:55;3.50;99.90
46364;DHT22;32071;49.036;9.344;2024-03-02T06:45:21;3.50;99.90
46364;DHT22;32071;49.036;9.344;2024-03-02T06:47:47;3.50;99.90
46364;DHT22;32071;49.036;9.344;2024-03-02T06:50:12;3.50;99.90
46364;DHT22;32071;49.036;9.344;2024-03-02T06:52:38;3.50;99.90
46364;DHT22;32071;49.036;9.344;2024-03-02T06:55:04;3.50;99.90
46364;DHT22;32071;49.036;9.344;2024-03-02T06:57:30;3.50;99.90
46364;DHT22;32071;49.036;9.344;2024-03-02T06:59:56;3.50;99.90
46364;DHT22;32071;49.036;9.344;2024-03-02T07:02:24;3.60;99.90
46364;DHT22;32071;49.036;9.344;2024-03-02T07:04:52;3.60;99.90
46364;DHT22;32071;49.036;9.344;2024-03-02T07:07:18;3.80;99.90
46364;DHT22;32071;49.036;9.344;2024-03-02T07:09:43;3.90;99.90
46364;DHT22;32071;49.036;9.344;2024-03-02T07:12:09;3.90;99.90
46364;DHT22;32071;49.036;9.344;2024-03-02T07:14:35;4.10;99.90
46364;DHT22;32071;49.036;9.344;2024-03-02T07:17:22;4.10;99.90
46364;DHT22;32071;49.036;9.344;2024-03-02T07:19:48;4.20;99.90
46364;DHT22;32071;49.036;9.344;2024-03-02T07:22:13;4.30;99.90
46364;DHT22;32071;49.036;9.344;2024-03-02T07:24:40;4.30;99.90
46364;DHT22;32071;49.036;9.344;2024-03-02T07:27:06;4.40;99.90
46364;DHT22;32071;49.036;9.344;2024-03-02T07:29:32;4.50;99.90
46364;DHT22;32071;49.036;9.344;2024-03-02T07:31:57;4.40;99.90
46364;DHT22;32071;49.036;9.344;2024-03-02T07:34:23;4.50;99.90
46364;DHT22;32071;49.036;9.344;2024-03-02T07:36:49;4.60;99.90
46364;DHT22;32071;49.036;9.344;2024-03-02T07:39:14;4.70;99.90
46364;DHT22;32071;49.036;9.344;2024-03-02T07:41:40;4.90;99.90
46364;DHT22;32071;49.036;9.344;2024-03-02T07:44:05;5.00;99.90
46364;DHT22;32071;49.036;9.344;2024-03-02T07:46:31;5.10;99.90
46364;DHT22;32071;49.036;9.344;2024-03-02T07:48:56;5.30;99.90
46364;DHT22;32071;49.036;9.344;2024-03-02T07:51:22;5.40;99.90
46364;DHT22;32071;49.036;9.344;2024-03-02T07:53:47;5.50;99.90
46364;DHT22;32071;49.036;9.344;2024-03-02T07:56:13;5.60;99.90
46364;DHT22;32071;49.036;9.344;2024-03-02T07:58:39;5.70;99.90
46364;DHT22;32071;49.036;9.344;2024-03-02T08:01:04;5.80;99.90
46364;DHT22;32071;49.036;9.344;2024-03-02T08:03:30;5.90;99.90
46364;DHT22;32071;49.036;9.344;2024-03-02T08:05:57;5.90;99.90
46364;DHT22;32071;49.036;9.344;2024-03-02T08:08:23;6.10;99.90
46364;DHT22;32071;49.036;9.344;2024-03-02T08:10:48;6.20;99.90
46364;DHT22;32071;49.036;9.344;2024-03-02T08:13:14;6.30;99.90
46364;DHT22;32071;49.036;9.344;2024-03-02T08:15:40;6.40;99.90
46364;DHT22;32071;49.036;9.344;2024-03-02T08:18:06;6.50;99.90
46364;DHT22;32071;49.036;9.344;2024-03-02T08:20:31;6.60;99.90
46364;DHT22;32071;49.036;9.344;2024-03-02T08:22:57;6.70;99.90
46364;DHT22;32071;49.036;9.344;2024-03-02T08:25:22;6.70;99.90
46364;DHT22;32071;49.036;9.344;2024-03-02T08:27:48;6.80;99.90
46364;DHT22;32071;49.036;9.344;2024-03-02T08:30:14;6.80;99.90
46364;DHT22;32071;49.036;9.344;2024-03-02T08:32:39;6.90;99.90
46364;DHT22;32071;49.036;9.344;2024-03-02T08:35:06;6.90;99.90
46364;DHT22;32071;49.036;9.344;2024-03-02T08:37:32;7.00;99.90
46364;DHT22;32071;49.036;9.344;2024-03-02T08:39:57;6.90;99.90
46364;DHT22;32071;49.036;9.344;2024-03-02T08:42:23;6.90;99.90
46364;DHT22;32071;49.036;9.344;2024-03-02T08:44:49;6.90;99.90
46364;DHT22;32071;49.036;9.344;2024-03-02T08:47:15;6.90;99.90
46364;DHT22;32071;49.036;9.344;2024-03-02T08:49:40;7.00;99.90
46364;DHT22;32071;49.036;9.344;2024-03-02T08:52:06;7.00;99.90
46364;DHT22;32071;49.036;9.344;2024-03-02T08:54:31;7.10;99.90
46364;DHT22;32071;49.036;9.344;2024-03-02T08:56:59;7.10;99.90
46364;DHT22;32071;49.036;9.344;2024-03-02T08:59:25;7.10;99.90
46364;DHT22;32071;49.036;9.344;2024-03-02T09:01:53;7.10;99.90
46364;DHT22;32071;49.036;9.344;2024-03-02T09:04:18;7.10;99.90
46364;DHT22;32071;49.036;9.344;2024-03-02T09:06:44;7.20;99.90
46364;DHT22;32071;49.036;9.344;2024-03-02T09:09:09;7.30;99.90
46364;DHT22;32071;49.036;9.344;2024-03-02T09:11:35;7.40;99.90
46364;DHT22;32071;49.036;9.344;2024-03-02T09:14:01;7.50;99.90
46364;DHT22;32071;49.036;9.344;2024-03-02T09:16:27;7.70;99.90
46364;DHT22;32071;49.036;9.344;2024-03-02T09:18:56;7.80;99.90
46364;DHT22;32071;49.036;9.344;2024-03-02T09:21:22;7.90;99.90
46364;DHT22;32071;49.036;9.344;2024-03-02T09:23:48;8.20;99.90
46364;DHT22;32071;49.036;9.344;2024-03-02T09:26:14;8.50;99.90
46364;DHT22;32071;49.036;9.344;2024-03-02T09:28:43;8.60;99.90
46364;DHT22;32071;49.036;9.344;2024-03-02T09:31:09;8.80;99.90
46364;DHT22;32071;49.036;9.344;2024-03-02T09:33:34;8.90;99.90
46364;DHT22;32071;49.036;9.344;2024-03-02T09:36:00;9.00;99.90
46364;DHT22;32071;49.036;9.344;2024-03-02T09:38:25;9.10;99.90
46364;DHT22;32071;49.036;9.344;2024-03-02T09:40:51;9.20;99.90
46364;DHT22;32071;49.036;9.344;2024-03-02T09:43:16;9.40;99.90
46364;DHT22;32071;49.036;9.344;2024-03-02T09:45:43;9.40;99.90
46364;DHT22;32071;49.036;9.344;2024-03-02T09:48:10;9.60;99.90
46364;DHT22;32071;49.036;9.344;2024-03-02T09:50:35;9.60;99.90
46364;DHT22;32071;49.036;9.344;2024-03-02T09:53:01;9.80;99.90
46364;DHT22;32071;49.036;9.344;2024-03-02T09:55:27;9.90;99.90
46364;DHT22;32071;49.036;9.344;2024-03-02T09:57:53;10.00;99.90
46364;DHT22;32071;49.036;9.344;2024-03-02T10:00:18;10.10;99.90
46364;DHT22;32071;49.036;9.344;2024-03-02T10:02:44;10.30;99.90
46364;DHT22;32071;49.036;9.344;2024-03-02T10:05:24;10.30;99.90
46364;DHT22;32071;49.036;9.344;2024-03-02T10:07:59;10.30;99.90
46364;DHT22;32071;49.036;9.344;2024-03-02T10:10:37;10.40;99.90
46364;DHT22;32071;49.036;9.344;2024-03-02T10:13:06;10.50;99.90
46364;DHT22;32071;49.036;9.344;2024-03-02T10:15:32;10.60;99.90
46364;DHT22;32071;49.036;9.344;2024-03-02T10:17:58;10.70;99.90
46364;DHT22;32071;49.036;9.344;2024-03-02T10:20:27;10.80;99.90
46364;DHT22;32071;49.036;9.344;2024-03-02T10:23:18;10.90;99.90
46364;DHT22;32071;49.036;9.344;2024-03-02T10:25:44;11.00;99.90
46364;DHT22;32071;49.036;9.344;2024-03-02T10:28:10;11.10;99.90
46364;DHT22;32071;49.036;9.344;2024-03-02T10:30:36;11.10;99.90
46364;DHT22;32071;49.036;9.344;2024-03-02T10:33:02;11.20;99.90
46364;DHT22;32071;49.036;9.344;2024-03-02T10:35:28;11.20;99.90
46364;DHT22;32071;49.036;9.344;2024-03-02T10:37:58;11.30;99.90
46364;DHT22;32071;49.036;9.344;2024-03-02T10:40:24;11.40;99.90
46364;DHT22;32071;49.036;9.344;2024-03-02T10:42:50;11.50;99.90
46364;DHT22;32071;49.036;9.344;2024-03-02T10:45:20;11.60;99.90
46364;DHT22;32071;49.036;9.344;2024-03-02T10:47:50;11.70;99.90
46364;DHT22;32071;49.036;9.344;2024-03-02T10:50:16;11.80;99.90
46364;DHT22;32071;49.036;9.344;2024-03-02T10:52:41;11.80;99.90
46364;DHT22;32071;49.036;9.344;2024-03-02T10:55:09;11.80;99.90
46364;DHT22;32071;49.036;9.344;2024-03-02T10:57:53;11.90;99.90
46364;DHT22;32071;49.036;9.344;2024-03-02T11:00:19;12.00;99.90
46364;DHT22;32071;49.036;9.344;2024-03-02T11:02:57;12.10;99.90
46364;DHT22;32071;49.036;9.344;2024-03-02T11:05:36;12.20;99.90
46364;DHT22;32071;49.036;9.344;2024-03-02T11:08:06;12.30;99.90
46364;DHT22;32071;49.036;9.344;2024-03-02T11:10:39;12.40;99.90
46364;DHT22;32071;49.036;9.344;2024-03-02T11:13:09;12.50;99.90
46364;DHT22;32071;49.036;9.344;2024-03-02T11:15:36;12.60;99.90
46364;DHT22;32071;49.036;9.344;2024-03-02T11:18:04;12.70;99.90
46364;DHT22;32071;49.036;9.344;2024-03-02T11:20:35;12.90;99.90
46364;DHT22;32071;49.036;9.344;2024-03-02T11:23:09;12.90;99.90
46364;DHT22;32071;49.036;9.344;2024-03-02T11:25:35;13.10;99.90
46364;DHT22;32071;49.036;9.344;2024-03-02T11:28:02;13.10;99.90
46364;DHT22;32071;49.036;9.344;2024-03-02T11:33:06;13.30;99.90
46364;DHT22;32071;49.036;9.344;2024-03-02T11:35:34;13.20;99.90
46364;DHT22;32071;49.036;9.344;2024-03-02T11:38:01;13.30;99.90
46364;DHT22;32071;49.036;9.344;2024-03-02T11:40:29;13.40;99.90
46364;DHT22;32071;49.036;9.344;2024-03-02T11:42:55;13.50;99.90
46364;DHT22;32071;49.036;9.344;2024-03-02T11:45:25;13.50;99.90
46364;DHT22;32071;49.036;9.344;2024-03-02T11:47:52;13.60;99.90
46364;DHT22;32071;49.036;9.344;2024-03-02T11:50:34;13.80;99.90
46364;DHT22;32071;49.036;9.344;2024-03-02T11:53:00;13.90;99.90
46364;DHT22;32071;49.036;9.344;2024-03-02T11:55:26;13.90;99.90
46364;DHT22;32071;49.036;9.344;2024-03-02T11:57:55;13.90;99.90
46364;DHT22;32071;49.036;9.344;2024-03-02T12:00:20;13.90;99.90
46364;DHT22;32071;49.036;9.344;2024-03-02T12:02:47;14.00;99.90
46364;DHT22;32071;49.036;9.344;2024-03-02T12:05:24;14.10;99.90
46364;DHT22;32071;49.036;9.344;2024-03-02T12:08:02;14.20;99.90
46364;DHT22;32071;49.036;9.344;2024-03-02T12:10:28;14.20;99.90
46364;DHT22;32071;49.036;9.344;2024-03-02T12:13:01;14.30;99.90
46364;DHT22;32071;49.036;9.344;2024-03-02T12:15:32;14.40;99.90
46364;DHT22;32071;49.036;9.344;2024-03-02T12:17:59;14.30;99.90
46364;DHT22;32071;49.036;9.344;2024-03-02T12:20:26;14.40;99.90
46364;DHT22;32071;49.036;9.344;2024-03-02T12:22:53;14.40;99.90
46364;DHT22;32071;49.036;9.344;2024-03-02T12:25:23;14.50;99.90
46364;DHT22;32071;49.036;9.344;2024-03-02T12:27:50;14.50;99.90
46364;DHT22;32071;49.036;9.344;2024-03-02T12:30:17;14.60;99.90
46364;DHT22;32071;49.036;9.344;2024-03-02T12:32:44;14.60;99.90
46364;DHT22;32071;49.036;9.344;2024-03-02T12:35:10;14.70;99.90
46364;DHT22;32071;49.036;9.344;2024-03-02T12:37:48;14.60;99.90
46364;DHT22;32071;49.036;9.344;2024-03-02T12:40:15;14.70;99.90
46364;DHT22;32071;49.036;9.344;2024-03-02T12:42:43;14.60;99.90
46364;DHT22;32071;49.036;9.344;2024-03-02T12:45:09;14.70;99.90
46364;DHT22;32071;49.036;9.344;2024-03-02T12:47:35;14.80;99.90
46364;DHT22;32071;49.036;9.344;2024-03-02T12:50:01;14.90;99.90
46364;DHT22;32071;49.036;9.344;2024-03-02T12:52:26;15.10;99.90
46364;DHT22;32071;49.036;9.344;2024-03-02T12:54:52;15.30;99.90
46364;DHT22;32071;49.036;9.344;2024-03-02T12:57:21;15.40;99.60
46364;DHT22;32071;49.036;9.344;2024-03-02T12:59:47;15.50;99.90
46364;DHT22;32071;49.036;9.344;2024-03-02T13:02:19;15.40;99.90
46364;DHT22;32071;49.036;9.344;2024-03-02T13:04:44;15.40;99.90
46364;DHT22;32071;49.036;9.344;2024-03-02T13:07:11;15.50;99.90
46364;DHT22;32071;49.036;9.344;2024-03-02T13:09:39;15.50;99.90
46364;DHT22;32071;49.036;9.344;2024-03-02T13:12:05;15.50;99.90
46364;DHT22;32071;49.036;9.344;2024-03-02T13:14:33;15.40;99.90
46364;DHT22;32071;49.036;9.344;2024-03-02T13:17:01;15.50;99.90
46364;DHT22;32071;49.036;9.344;2024-03-02T13:19:29;15.50;99.00
46364;DHT22;32071;49.036;9.344;2024-03-02T13:21:56;15.50;99.90
46364;DHT22;32071;49.036;9.344;2024-03-02T13:24:22;15.50;99.50
46364;DHT22;32071;49.036;9.344;2024-03-02T13:26:51;15.50;98.80
46364;DHT22;32071;49.036;9.344;2024-03-02T13:29:21;15.50;98.80
46364;DHT22;32071;49.036;9.344;2024-03-02T13:31:46;15.50;99.30
46364;DHT22;32071;49.036;9.344;2024-03-02T13:34:12;15.50;97.70
46364;DHT22;32071;49.036;9.344;2024-03-02T13:36:38;15.50;98.30
46364;DHT22;32071;49.036;9.344;2024-03-02T13:39:04;15.50;98.70
46364;DHT22;32071;49.036;9.344;2024-03-02T13:41:31;15.50;98.30
46364;DHT22;32071;49.036;9.344;2024-03-02T13:43:57;15.50;99.00
46364;DHT22;32071;49.036;9.344;2024-03-02T13:46:26;15.40;98.10
46364;DHT22;32071;49.036;9.344;2024-03-02T13:48:52;15.40;97.70
46364;DHT22;32071;49.036;9.344;2024-03-02T13:51:17;15.40;97.30
46364;DHT22;32071;49.036;9.344;2024-03-02T13:53:43;15.40;97.50
46364;DHT22;32071;49.036;9.344;2024-03-02T13:56:09;15.50;97.00
46364;DHT22;32071;49.036;9.344;2024-03-02T13:58:34;15.60;97.00
46364;DHT22;32071;49.036;9.344;2024-03-02T14:01:00;15.60;96.90
46364;DHT22;32071;49.036;9.344;2024-03-02T14:03:27;15.50;97.20
46364;DHT22;32071;49.036;9.344;2024-03-02T14:05:53;15.50;97.80
46364;DHT22;32071;49.036;9.344;2024-03-02T14:08:18;15.50;98.10
46364;DHT22;32071;49.036;9.344;2024-03-02T14:10:44;15.50;98.10
46364;DHT22;32071;49.036;9.344;2024-03-02T14:13:10;15.50;97.90
46364;DHT22;32071;49.036;9.344;2024-03-02T14:15:35;15.50;97.70
46364;DHT22;32071;49.036;9.344;2024-03-02T14:18:05;15.60;97.70
46364;DHT22;32071;49.036;9.344;2024-03-02T14:20:30;15.60;98.00
46364;DHT22;32071;49.036;9.344;2024-03-02T14:22:56;15.70;98.40
46364;DHT22;32071;49.036;9.344;2024-03-02T14:25:21;15.70;97.40
46364;DHT22;32071;49.036;9.344;2024-03-02T14:27:47;15.70;97.70
46364;DHT22;32071;49.036;9.344;2024-03-02T14:30:13;15.60;97.80
46364;DHT22;32071;49.036;9.344;2024-03-02T14:32:39;15.60;96.70
46364;DHT22;32071;49.036;9.344;2024-03-02T14:35:05;15.60;97.10
46364;DHT22;32071;49.036;9.344;2024-03-02T14:37:30;15.50;97.70
46364;DHT22;32071;49.036;9.344;2024-03-02T14:39:56;15.50;96.90
46364;DHT22;32071;49.036;9.344;2024-03-02T14:42:22;15.50;96.70
46364;DHT22;32071;49.036;9.344;2024-03-02T14:44:47;15.60;96.50
46364;DHT22;32071;49.036;9.344;2024-03-02T14:47:13;15.60;96.10
46364;DHT22;32071;49.036;9.344;2024-03-02T14:49:39;15.60;96.20
46364;DHT22;32071;49.036;9.344;2024-03-02T14:52:06;15.60;96.50
46364;DHT22;32071;49.036;9.344;2024-03-02T14:54:32;15.60;96.60
46364;DHT22;32071;49.036;9.344;2024-03-02T14:56:58;15.60;95.90
46364;DHT22;32071;49.036;9.344;2024-03-02T14:59:24;15.60;97.20
46364;DHT22;32071;49.036;9.344;2024-03-02T15:01:49;15.60;97.40
46364;DHT22;32071;49.036;9.344;2024-03-02T15:04:15;15.60;97.40
46364;DHT22;32071;49.036;9.344;2024-03-02T15:06:42;15.60;96.40
46364;DHT22;32071;49.036;9.344;2024-03-02T15:09:07;15.60;95.90
46364;DHT22;32071;49.036;9.344;2024-03-02T15:11:33;15.60;96.40
46364;DHT22;32071;49.036;9.344;2024-03-02T15:13:59;15.60;96.80
46364;DHT22;32071;49.036;9.344;2024-03-02T15:16:25;15.50;96.80
46364;DHT22;32071;49.036;9.344;2024-03-02T15:18:50;15.40;96.30
46364;DHT22;32071;49.036;9.344;2024-03-02T15:21:16;15.30;96.90
46364;DHT22;32071;49.036;9.344;2024-03-02T15:23:41;15.30;97.30
46364;DHT22;32071;49.036;9.344;2024-03-02T15:26:08;15.20;97.40
46364;DHT22;32071;49.036;9.344;2024-03-02T15:28:34;15.20;96.70
46364;DHT22;32071;49.036;9.344;2024-03-02T15:30:59;15.20;97.90
46364;DHT22;32071;49.036;9.344;2024-03-02T15:33:25;15.10;97.80
46364;DHT22;32071;49.036;9.344;2024-03-02T15:35:54;15.10;97.50
46364;DHT22;32071;49.036;9.344;2024-03-02T15:38:20;15.00;98.40
46364;DHT22;32071;49.036;9.344;2024-03-02T15:40:46;15.00;98.00